M I D A S
Marine Information and Data Acquisition System
Tripno 1737 of the Zeeleeuw from 2009-07-23 07:29:28 to 2009-07-23 14:44:42
Back to CruiseResearch ActivitiesStationsMapUnderway DataData graphs

EquipmentUnitsComment
TimeDGPSUTC
LatitudeDGPSDM.mWGS84
LongitudeDGPSDM.mWGS84
HeadingGyrodeg 
SOGDGPSknotsSpeed over ground
COGDGPSdegCourse over ground
DepthEcho soundermeters200 kHz
Missing or incorrect values are displayed as -999
Navigation data collected by the RV Zeeleeuw from 2009-07-23 07:24:28 to 2009-07-23 14:51:59
Time Latitude Longitude Heading SOG COG Depth
2009-07-23 07:25:33 51°13.679 2°55.905 112.3 3.1 297 -999
2009-07-23 07:26:33 51°13.697 2°55.823 93.1 3.1 281 -999
2009-07-23 07:27:31 51°13.696 2°55.76 68.6 2 260 11.7
2009-07-23 07:28:30 51°13.699 2°55.739 37.3 0.9 3 11.5
2009-07-23 07:29:29 51°13.747 2°55.709 330 5.3 328 10.5
2009-07-23 07:30:29 51°13.864 2°55.608 334.9 9.1 334 9.8
2009-07-23 07:31:29 51°14.005 2°55.5 336.6 9.5 335 9.8
2009-07-23 07:32:29 51°14.146 2°55.389 335.5 9.3 332 9.7
2009-07-23 07:33:29 51°14.267 2°55.24 316.3 9.3 313 9.3
2009-07-23 07:34:29 51°14.377 2°55.05 314.3 10.1 313 9.1
2009-07-23 07:35:29 51°14.512 2°54.874 329 10.8 325 9
2009-07-23 07:36:29 51°14.666 2°54.714 334.9 11.3 326 8.4
2009-07-23 07:37:29 51°14.825 2°54.551 334.8 11.3 328 8.3
2009-07-23 07:38:29 51°14.987 2°54.404 337.8 11.2 332 9
2009-07-23 07:39:29 51°15.149 2°54.258 336.6 11.2 330 9.3
2009-07-23 07:40:29 51°15.31 2°54.11 336.7 11.2 331 9.7
2009-07-23 07:41:29 51°15.474 2°53.967 337.6 11.2 330 9.2
2009-07-23 07:42:29 51°15.636 2°53.816 337.5 11.3 329 9.7
2009-07-23 07:43:29 51°15.799 2°53.666 339 11.3 330 10.1
2009-07-23 07:44:29 51°15.963 2°53.515 338.5 11.3 329 10.2
2009-07-23 07:45:29 51°16.123 2°53.355 335.8 11.3 327 10.5
2009-07-23 07:46:29 51°16.282 2°53.196 336.5 11.3 328 10.8
2009-07-23 07:47:29 51°16.443 2°53.043 339 11.3 331 10.6
2009-07-23 07:48:29 51°16.605 2°52.895 337.2 11.2 330 10.4
2009-07-23 07:49:29 51°16.764 2°52.746 335.7 10.9 329 8.7
2009-07-23 07:50:29 51°16.919 2°52.603 336.9 10.8 329 8.6
2009-07-23 07:51:29 51°17.074 2°52.457 336.6 10.8 329 8.7
2009-07-23 07:52:29 51°17.232 2°52.322 340.3 10.8 333 9.1
2009-07-23 07:53:29 51°17.392 2°52.192 341.9 10.8 335 10.2
2009-07-23 07:54:29 51°17.551 2°52.062 340.4 10.7 332 9.9
2009-07-23 07:55:29 51°17.708 2°51.929 340 10.7 332 9.3
2009-07-23 07:56:29 51°17.866 2°51.797 340.5 10.8 332 9.3
2009-07-23 07:57:29 51°18.024 2°51.663 341 10.8 333 9.8
2009-07-23 07:58:29 51°18.186 2°51.534 342.2 10.9 332 10.6
2009-07-23 07:59:29 51°18.348 2°51.399 341.5 10.9 333 11.5
2009-07-23 08:00:29 51°18.508 2°51.26 339.8 11 330 12.7
2009-07-23 08:01:29 51°18.668 2°51.118 340.8 11 331 13.2
2009-07-23 08:02:29 51°18.823 2°50.96 336.7 11.2 326 13.7
2009-07-23 08:03:29 51°18.976 2°50.791 334.7 11.1 325 13.7
2009-07-23 08:04:29 51°19.129 2°50.624 336.3 11.1 327 13.3
2009-07-23 08:05:29 51°19.284 2°50.462 336.1 11.2 326 11.9
2009-07-23 08:06:29 51°19.44 2°50.299 336 11.2 327 11
2009-07-23 08:07:29 51°19.598 2°50.138 336.7 11.3 328 11.7
2009-07-23 08:08:29 51°19.758 2°49.977 337.2 11.4 327 14
2009-07-23 08:09:29 51°19.916 2°49.812 334.8 11.4 325 15.3
2009-07-23 08:10:29 51°20.068 2°49.629 333.3 11.5 322 17.8
2009-07-23 08:11:29 51°20.218 2°49.441 332.5 11.5 321 20
2009-07-23 08:12:29 51°20.367 2°49.249 331.9 11.5 321 21.5
2009-07-23 08:13:29 51°20.516 2°49.059 332.8 11.5 321 21.7
2009-07-23 08:14:29 51°20.666 2°48.873 333.7 11.4 322 21.4
2009-07-23 08:15:29 51°20.816 2°48.685 333.2 11.5 322 20.6
2009-07-23 08:16:29 51°20.966 2°48.496 332.1 11.5 321 19.5
2009-07-23 08:17:29 51°21.118 2°48.313 334.3 11.5 324 19.5
2009-07-23 08:18:29 51°21.271 2°48.129 334 11.6 323 20.7
2009-07-23 08:19:29 51°21.424 2°47.939 333.4 11.7 322 21.1
2009-07-23 08:20:29 51°21.579 2°47.752 333.9 11.6 323 22.4
2009-07-23 08:21:29 51°21.735 2°47.572 333.4 11.6 324 23.2
2009-07-23 08:22:29 51°21.891 2°47.392 333 11.5 324 23.4
2009-07-23 08:23:29 51°22.046 2°47.214 333.2 11.4 324 22.9
2009-07-23 08:24:29 51°22.198 2°47.035 332.7 11.3 323 20.4
2009-07-23 08:25:29 51°22.346 2°46.853 332.5 11.1 323 17.5
2009-07-23 08:26:29 51°22.495 2°46.672 332.7 11.3 322 17.7
2009-07-23 08:27:29 51°22.644 2°46.491 332.3 11.3 322 20.9
2009-07-23 08:28:29 51°22.794 2°46.311 333.8 11.3 324 22.4
2009-07-23 08:29:29 51°22.945 2°46.132 333.2 11.3 323 23.1
2009-07-23 08:30:29 51°23.095 2°45.951 334 11.3 322 23.8
2009-07-23 08:31:29 51°23.243 2°45.766 332.3 11.3 321 24.7
2009-07-23 08:32:28 51°23.388 2°45.586 333.7 11.3 321 26.5
2009-07-23 08:33:29 51°23.536 2°45.398 333.7 11.2 321 26.3
2009-07-23 08:34:29 51°23.683 2°45.212 333.6 11.2 322 25.7
2009-07-23 08:35:29 51°23.829 2°45.026 334.4 11.3 321 25.4
2009-07-23 08:36:28 51°23.981 2°44.977 21.2 9.5 16 25.8
2009-07-23 08:37:29 51°24.136 2°45.07 29.9 9.9 27 25.7
2009-07-23 08:38:29 51°24.279 2°45.194 40.5 9.7 41 25.8
2009-07-23 08:39:29 51°24.393 2°45.38 50.9 9.8 52 25.7
2009-07-23 08:40:29 51°24.476 2°45.605 60.6 9.8 63 25.3
2009-07-23 08:41:29 51°24.55 2°45.84 62 9.9 61 24.7
2009-07-23 08:42:29 51°24.647 2°46.054 53 9.9 51 24.2
2009-07-23 08:43:29 51°24.749 2°46.26 52.3 9.8 51 24.1
2009-07-23 08:44:29 51°24.849 2°46.468 56.4 9.9 57 24.6
2009-07-23 08:45:29 51°24.936 2°46.691 58 9.9 57 24.1
2009-07-23 08:46:29 51°25.022 2°46.919 59.5 10 60 24.2
2009-07-23 08:47:29 51°25.106 2°47.151 59.7 10 60 24.4
2009-07-23 08:48:29 51°25.192 2°47.38 58.5 10 60 24.3
2009-07-23 08:49:29 51°25.279 2°47.608 57.6 10 59 26.1
2009-07-23 08:50:29 51°25.367 2°47.834 58.2 10 58 25.7
2009-07-23 08:51:29 51°25.456 2°48.059 58.9 10 59 26.4
2009-07-23 08:52:29 51°25.542 2°48.288 59.2 10 58 23.9
2009-07-23 08:53:29 51°25.626 2°48.515 58.5 9.9 59 23.4
2009-07-23 08:54:29 51°25.713 2°48.741 58.2 10 55 23.5
2009-07-23 08:55:29 51°25.799 2°48.966 57.9 10 56 23.7
2009-07-23 08:56:29 51°25.89 2°49.189 58.3 9.9 56 23.3
2009-07-23 08:57:29 51°25.978 2°49.413 57.8 10 57 22.9
2009-07-23 08:58:29 51°26.065 2°49.638 57.8 10 58 22.9
2009-07-23 08:59:29 51°26.154 2°49.861 57.4 9.9 58 22.6
2009-07-23 09:00:29 51°26.241 2°50.088 58.1 10.1 56 22.9
2009-07-23 09:01:29 51°26.327 2°50.317 57.6 9.9 56 23.1
2009-07-23 09:02:29 51°26.416 2°50.543 57.4 10.1 58 23.1
2009-07-23 09:03:29 51°26.504 2°50.769 57.6 10 58 22.9
2009-07-23 09:04:29 51°26.592 2°50.996 57.4 10.1 60 24
2009-07-23 09:05:29 51°26.68 2°51.226 57.8 10.2 58 25
2009-07-23 09:06:29 51°26.766 2°51.459 58.9 10.2 59 23.6
2009-07-23 09:07:29 51°26.854 2°51.689 58.3 10.1 59 24.4
2009-07-23 09:08:29 51°26.942 2°51.921 59 10.1 58 24.1
2009-07-23 09:09:29 51°27.027 2°52.152 57.8 10 58 20
2009-07-23 09:10:29 51°27.111 2°52.382 58.2 10 60 20.7
2009-07-23 09:11:29 51°27.196 2°52.614 57.8 10.1 60 21.7
2009-07-23 09:12:29 51°27.279 2°52.846 58 10 61 20
2009-07-23 09:13:29 51°27.363 2°53.079 59 10 59 20.6
2009-07-23 09:14:29 51°27.446 2°53.31 58.4 10 59 22.7
2009-07-23 09:15:29 51°27.531 2°53.537 57.3 9.9 57 23.3
2009-07-23 09:16:29 51°27.615 2°53.766 58.8 9.9 60 22.6
2009-07-23 09:17:29 51°27.7 2°53.992 57.8 9.9 60 22
2009-07-23 09:18:29 51°27.782 2°54.22 58.9 10 62 22.5
2009-07-23 09:19:29 51°27.864 2°54.449 58.6 10 60 23.2
2009-07-23 09:20:29 51°27.945 2°54.68 58.6 10 61 22.6
2009-07-23 09:21:29 51°28.028 2°54.909 57.7 9.8 60 23.8
2009-07-23 09:22:29 51°28.112 2°55.136 57.6 9.9 57 24.6
2009-07-23 09:23:29 51°28.196 2°55.362 57.5 9.9 60 24.4
2009-07-23 09:24:29 51°28.279 2°55.59 58.4 9.9 61 24.2
2009-07-23 09:25:29 51°28.362 2°55.815 57.2 9.8 57 26.1
2009-07-23 09:26:29 51°28.45 2°56.036 57.5 9.9 56 25.8
2009-07-23 09:27:29 51°28.534 2°56.26 58.3 9.8 60 25.2
2009-07-23 09:28:29 51°28.618 2°56.485 58.9 9.8 60 26.3
2009-07-23 09:29:29 51°28.701 2°56.714 58.9 9.9 58 24.8
2009-07-23 09:30:29 51°28.785 2°56.941 58.8 9.9 57 26.2
2009-07-23 09:31:29 51°28.869 2°57.166 57.9 9.8 59 25.9
2009-07-23 09:32:29 51°28.956 2°57.388 57.8 9.9 58 24.3
2009-07-23 09:33:29 51°29.042 2°57.612 58.2 9.9 59 26.2
2009-07-23 09:34:29 51°29.129 2°57.837 57.4 9.9 59 26
2009-07-23 09:35:29 51°29.218 2°58.061 59 9.9 56 25.3
2009-07-23 09:36:29 51°29.306 2°58.285 58.4 9.9 58 26.4
2009-07-23 09:37:29 51°29.395 2°58.508 58.6 9.9 56 26.3
2009-07-23 09:38:29 51°29.481 2°58.734 59.3 10.1 59 26.5
2009-07-23 09:39:29 51°29.568 2°58.961 58.3 10 57 26.8
2009-07-23 09:40:29 51°29.654 2°59.188 58.8 9.9 58 26.7
2009-07-23 09:41:29 51°29.739 2°59.412 57.5 9.8 58 25.7
2009-07-23 09:42:29 51°29.822 2°59.632 58.8 9.6 59 26.9
2009-07-23 09:43:29 51°29.911 2°59.851 58 9.9 59 26.9
2009-07-23 09:44:29 51°29.999 3°0.071 57.6 9.7 59 27
2009-07-23 09:45:29 51°30.085 3°0.287 57.4 9.6 60 26.9
2009-07-23 09:46:29 51°30.172 3°0.51 58.7 10 59 27.6
2009-07-23 09:47:29 51°30.262 3°0.738 58.8 10.1 58 27.5
2009-07-23 09:48:29 51°30.354 3°0.966 57.6 10.2 56 27.1
2009-07-23 09:49:29 51°30.442 3°1.197 59 10.2 56 27.6
2009-07-23 09:50:29 51°30.532 3°1.426 58.1 10.2 56 27.1
2009-07-23 09:51:29 51°30.622 3°1.657 57.8 10.2 58 27.2
2009-07-23 09:52:29 51°30.712 3°1.888 57.9 10.1 59 27.3
2009-07-23 09:53:29 51°30.803 3°2.118 58.9 10.2 58 27.7
2009-07-23 09:54:29 51°30.893 3°2.349 59.1 10.2 59 27.9
2009-07-23 09:55:29 51°30.974 3°2.592 61.5 10.3 61 28.1
2009-07-23 09:56:29 51°31.052 3°2.835 63.1 10.3 63 28
2009-07-23 09:57:29 51°31.132 3°3.078 61.6 10.3 60 27.8
2009-07-23 09:58:29 51°31.211 3°3.322 62.8 10.3 63 28.4
2009-07-23 09:59:29 51°31.293 3°3.567 62.7 10.5 61 28.3
2009-07-23 10:00:29 51°31.373 3°3.813 61.6 10.3 62 27.8
2009-07-23 10:01:29 51°31.454 3°4.055 62.4 10.2 62 27.9
2009-07-23 10:02:29 51°31.532 3°4.296 62.8 10.2 63 27.7
2009-07-23 10:03:29 51°31.61 3°4.539 63.1 10.2 63 28.2
2009-07-23 10:04:29 51°31.696 3°4.773 52.3 9.9 44 28.5
2009-07-23 10:05:29 51°31.846 3°4.887 18.7 10.3 11 28.2
2009-07-23 10:06:29 51°32.016 3°4.835 343.1 10.9 334 28.3
2009-07-23 10:07:29 51°32.176 3°4.674 335.4 11.4 327 28
2009-07-23 10:08:29 51°32.336 3°4.509 335.5 11.4 328 28.5
2009-07-23 10:09:29 51°32.478 3°4.314 318.5 11.4 310 30.2
2009-07-23 10:10:29 51°32.593 3°4.071 313.1 11.4 306 31.2
2009-07-23 10:11:29 51°32.708 3°3.83 314.3 11.3 307 30
2009-07-23 10:12:29 51°32.821 3°3.589 314 11.3 308 24.4
2009-07-23 10:13:29 51°32.934 3°3.35 312.9 11.2 305 21.9
2009-07-23 10:14:29 51°33.041 3°3.109 314.1 11 301 17.7
2009-07-23 10:15:29 51°33.016 3°2.819 251.6 12.3 244 19.2
2009-07-23 10:16:29 51°32.914 3°2.526 245.7 12.6 240 20.5
2009-07-23 10:17:29 51°32.805 3°2.236 243.8 12.7 239 22.3
2009-07-23 10:18:29 51°32.698 3°1.945 245.9 12.6 241 21
2009-07-23 10:19:29 51°32.595 3°1.651 245.5 12.7 240 23.2
2009-07-23 10:20:29 51°32.488 3°1.358 245.1 12.8 239 23.9
2009-07-23 10:21:29 51°32.378 3°1.064 245.1 12.8 239 23.6
2009-07-23 10:22:29 51°32.268 3°0.768 244.7 12.9 239 25.5
2009-07-23 10:23:29 51°32.162 3°0.47 246.1 12.8 241 25.9
2009-07-23 10:24:29 51°32.056 3°0.174 245.2 12.8 241 26.6
2009-07-23 10:25:29 51°31.949 2°59.88 245.6 12.8 240 26.4
2009-07-23 10:26:29 51°31.845 2°59.583 245.4 12.7 240 27.4
2009-07-23 10:27:29 51°31.74 2°59.29 244.6 12.6 240 28.2
2009-07-23 10:28:29 51°31.633 2°59 243.9 12.6 239 29.6
2009-07-23 10:29:29 51°31.529 2°58.707 244.7 12.6 240 29.9
2009-07-23 10:30:29 51°31.426 2°58.417 244.5 12.5 240 30.1
2009-07-23 10:31:29 51°31.323 2°58.124 245.4 12.6 241 30
2009-07-23 10:32:29 51°31.223 2°57.826 246.7 12.8 242 30.3
2009-07-23 10:33:29 51°31.122 2°57.527 244.7 12.9 240 30.7
2009-07-23 10:34:29 51°31.019 2°57.227 244.9 12.8 242 30.8
2009-07-23 10:35:29 51°30.918 2°56.924 245.2 12.9 242 31.1
2009-07-23 10:36:29 51°30.82 2°56.62 246.1 12.9 242 31.9
2009-07-23 10:37:29 51°30.721 2°56.315 246.2 12.8 243 33.1
2009-07-23 10:38:29 51°30.62 2°56.014 245.5 12.8 242 33.4
2009-07-23 10:39:29 51°30.52 2°55.714 245.9 12.8 242 34.9
2009-07-23 10:40:29 51°30.424 2°55.413 244.7 12.6 243 35.9
2009-07-23 10:41:29 51°30.33 2°55.117 246.7 12.4 244 35.9
2009-07-23 10:42:29 51°30.239 2°54.821 245.5 12.3 245 34.8
2009-07-23 10:43:29 51°30.145 2°54.527 245.3 12.3 242 33.8
2009-07-23 10:44:29 51°30.051 2°54.233 244.6 12.4 243 32.8
2009-07-23 10:45:29 51°29.957 2°53.943 244.3 12.2 243 31.6
2009-07-23 10:46:29 51°29.865 2°53.653 246.4 12.1 244 32.6
2009-07-23 10:47:29 51°29.774 2°53.365 245.8 12.1 244 32.6
2009-07-23 10:48:29 51°29.678 2°53.079 244.1 12.2 243 32.1
2009-07-23 10:49:29 51°29.585 2°52.79 244.7 12.2 243 31.3
2009-07-23 10:50:29 51°29.487 2°52.508 242.5 12.1 240 31.1
2009-07-23 10:51:29 51°29.388 2°52.226 244.5 12.2 242 31.1
2009-07-23 10:52:29 51°29.289 2°51.943 243.6 12.1 240 31.3
2009-07-23 10:53:29 51°29.19 2°51.66 243.1 12.2 240 30.7
2009-07-23 10:54:29 51°29.091 2°51.377 243.1 12.2 241 30.8
2009-07-23 10:55:29 51°28.992 2°51.094 243.3 12.2 242 29.4
2009-07-23 10:56:29 51°28.892 2°50.81 242.4 12.2 240 27
2009-07-23 10:57:29 51°28.792 2°50.525 242.9 12.2 241 27.6
2009-07-23 10:58:29 51°28.693 2°50.24 244 12.2 240 26.2
2009-07-23 10:59:29 51°28.59 2°49.959 243.1 12.3 241 27.8
2009-07-23 11:00:29 51°28.491 2°49.675 244 12.2 241 30.6
2009-07-23 11:01:29 51°28.393 2°49.392 242.7 12.2 240 30.6
2009-07-23 11:02:29 51°28.294 2°49.109 244.2 12.2 242 28.5
2009-07-23 11:03:29 51°28.199 2°48.823 243.8 12.1 242 24.9
2009-07-23 11:04:29 51°28.101 2°48.54 242.5 12.2 241 28.3
2009-07-23 11:05:29 51°28.002 2°48.259 242.2 12.1 241 31.1
2009-07-23 11:06:29 51°27.904 2°47.977 244 12.1 241 29.3
2009-07-23 11:07:29 51°27.809 2°47.694 243.1 12.1 242 30.3
2009-07-23 11:08:29 51°27.714 2°47.41 243.7 12.1 241 31.8
2009-07-23 11:09:29 51°27.617 2°47.13 242.3 12 241 31.3
2009-07-23 11:10:29 51°27.519 2°46.848 242.5 12.1 242 30.3
2009-07-23 11:11:29 51°27.424 2°46.564 244.4 12.1 242 32.3
2009-07-23 11:12:29 51°27.328 2°46.282 242.9 12 242 30.7
2009-07-23 11:13:29 51°27.232 2°46.001 243.2 12 242 30.6
2009-07-23 11:14:29 51°27.134 2°45.722 243.2 12 241 30.5
2009-07-23 11:15:29 51°27.039 2°45.442 243 11.9 241 29.4
2009-07-23 11:16:29 51°26.943 2°45.165 241.9 11.9 241 30
2009-07-23 11:17:29 51°26.85 2°44.888 243.3 11.8 242 28.8
2009-07-23 11:18:29 51°26.758 2°44.611 243.6 11.7 242 28.9
2009-07-23 11:19:29 51°26.665 2°44.335 243.2 11.7 242 29.3
2009-07-23 11:20:29 51°26.577 2°44.057 243.8 11.6 243 27.3
2009-07-23 11:21:29 51°26.492 2°43.78 247.6 11.5 251 26.3
2009-07-23 11:22:29 51°26.507 2°43.488 283.4 11.2 282 25.3
2009-07-23 11:23:29 51°26.592 2°43.235 311.8 11 313 24.2
2009-07-23 11:24:29 51°26.726 2°43.028 318.4 11.3 318 30.6
2009-07-23 11:25:29 51°26.879 2°42.856 327.8 11.2 328 32.4
2009-07-23 11:26:29 51°27.037 2°42.694 329.2 11.3 328 33.2
2009-07-23 11:27:29 51°27.196 2°42.534 328.6 11.3 328 33.1
2009-07-23 11:28:29 51°27.364 2°42.415 344 11.2 347 32.4
2009-07-23 11:29:29 51°27.548 2°42.396 10.6 11.1 16 32.6
2009-07-23 11:30:29 51°27.681 2°42.602 53 11.7 54 32.9
2009-07-23 11:31:29 51°27.783 2°42.873 59.5 12 61 33.6
2009-07-23 11:32:29 51°27.881 2°43.151 58.4 12 59 34.2
2009-07-23 11:33:29 51°27.98 2°43.429 59.1 12.1 61 33.7
2009-07-23 11:34:29 51°28.08 2°43.708 59.6 12.1 60 32.7
2009-07-23 11:35:29 51°28.18 2°43.99 60.8 12.2 60 31.7
2009-07-23 11:36:29 51°28.28 2°44.274 58.9 12.2 60 27.9
2009-07-23 11:37:29 51°28.381 2°44.556 58.9 12.1 60 31.6
2009-07-23 11:38:29 51°28.482 2°44.838 58.3 12.2 60 30.5
2009-07-23 11:39:29 51°28.582 2°45.124 59.8 12.3 59 28.9
2009-07-23 11:40:29 51°28.683 2°45.409 59 12.2 60 27.5
2009-07-23 11:41:29 51°28.784 2°45.692 59.9 12.2 61 27.1
2009-07-23 11:42:29 51°28.887 2°45.974 58.9 12.2 60 27.8
2009-07-23 11:43:29 51°28.986 2°46.26 59.6 12.3 59 27
2009-07-23 11:44:29 51°29.085 2°46.548 60.4 12.3 61 28.4
2009-07-23 11:45:29 51°29.185 2°46.835 59.2 12.4 61 28
2009-07-23 11:46:29 51°29.286 2°47.121 59.6 12.3 60 26.7
2009-07-23 11:47:29 51°29.39 2°47.401 58.3 12.2 58 25
2009-07-23 11:48:29 51°29.492 2°47.683 58.2 12.3 60 25.3
2009-07-23 11:49:29 51°29.591 2°47.969 59.4 12.3 60 22.9
2009-07-23 11:50:29 51°29.692 2°48.255 60.2 12.3 61 24.4
2009-07-23 11:51:29 51°29.79 2°48.542 59.9 12.3 61 25.7
2009-07-23 11:52:29 51°29.89 2°48.828 60 12.3 61 25.2
2009-07-23 11:53:29 51°29.992 2°49.112 59.1 12.3 60 25.5
2009-07-23 11:54:29 51°30.096 2°49.395 58.4 12.2 60 23.2
2009-07-23 11:55:29 51°30.197 2°49.68 59.3 12.3 60 24.2
2009-07-23 11:56:29 51°30.298 2°49.966 59.8 12.3 61 25.5
2009-07-23 11:57:29 51°30.398 2°50.254 60.5 12.4 61 19.8
2009-07-23 11:58:29 51°30.502 2°50.538 58.1 12.3 59 25.5
2009-07-23 11:59:29 51°30.605 2°50.824 58.9 12.4 62 22.5
2009-07-23 12:00:29 51°30.708 2°51.113 60.2 12.5 61 22.6
2009-07-23 12:01:29 51°30.81 2°51.403 60.2 12.5 61 24.1
2009-07-23 12:02:29 51°30.913 2°51.692 59.2 12.4 60 22.5
2009-07-23 12:03:29 51°31.017 2°51.98 59.5 12.4 60 24.7
2009-07-23 12:04:29 51°31.121 2°52.267 59.3 12.4 59 23.3
2009-07-23 12:05:29 51°31.224 2°52.556 58.9 12.5 60 21.9
2009-07-23 12:06:29 51°31.329 2°52.845 59 12.6 59 23.2
2009-07-23 12:07:29 51°31.433 2°53.135 59.1 12.6 60 21.8
2009-07-23 12:08:29 51°31.538 2°53.426 59.5 12.5 60 23.4
2009-07-23 12:09:29 51°31.642 2°53.717 60.1 12.6 61 23.2
2009-07-23 12:10:29 51°31.747 2°54.006 59 12.6 60 23.8
2009-07-23 12:11:29 51°31.855 2°54.293 57.7 12.5 57 23.7
2009-07-23 12:12:29 51°31.967 2°54.575 53.6 12.2 51 21.5
2009-07-23 12:13:29 51°32.14 2°54.685 3.8 11.6 8 23.5
2009-07-23 12:14:29 51°32.333 2°54.716 1.1 11.7 3 23.5
2009-07-23 12:15:29 51°32.528 2°54.72 357.1 11.7 358 25.7
2009-07-23 12:16:29 51°32.724 2°54.714 356.7 11.8 -999 25.5
2009-07-23 12:17:29 51°32.92 2°54.718 0.7 11.9 4 27.3
2009-07-23 12:18:29 51°33.118 2°54.764 10.1 12.1 15 27.7
2009-07-23 12:19:29 51°33.31 2°54.868 18.8 12.3 23 26.3
2009-07-23 12:20:29 51°33.49 2°55.027 33.3 12.4 37 28
2009-07-23 12:21:29 51°33.639 2°55.257 56.4 12.3 62 29.9
2009-07-23 12:22:29 51°33.633 2°55.568 109.7 12.2 106 29.1
2009-07-23 12:23:29 51°33.575 2°55.89 110.2 12.7 106 30.4
2009-07-23 12:24:29 51°33.525 2°56.217 106.5 12.5 102 28.4
2009-07-23 12:25:29 51°33.495 2°56.547 95 12.6 92 29.2
2009-07-23 12:26:29 51°33.504 2°56.881 88.1 12.5 87 29.5
2009-07-23 12:27:29 51°33.527 2°57.213 85.7 12.5 84 27.4
2009-07-23 12:28:29 51°33.547 2°57.547 86.8 12.5 84 27
2009-07-23 12:29:29 51°33.582 2°57.876 79.1 12.5 77 25.7
2009-07-23 12:30:29 51°33.629 2°58.204 77.7 12.6 76 25.6
2009-07-23 12:31:29 51°33.686 2°58.53 74.1 12.6 73 21.8
2009-07-23 12:32:29 51°33.749 2°58.853 74.2 12.7 72 22.3
2009-07-23 12:33:29 51°33.814 2°59.177 73.1 12.8 71 19.1
2009-07-23 12:34:29 51°33.88 2°59.5 71 12.8 71 21.3
2009-07-23 12:35:29 51°33.88 2°59.832 104.6 12.5 108 18.2
2009-07-23 12:36:29 51°33.778 3°0.113 138.4 12.1 134 15.8
2009-07-23 12:37:29 51°33.614 3°0.284 165.4 11.6 161 16.1
2009-07-23 12:38:29 51°33.428 3°0.306 193.9 11 189 28.7
2009-07-23 12:39:29 51°33.252 3°0.232 204 10.9 198 34.3
2009-07-23 12:40:29 51°33.079 3°0.141 205.1 10.8 199 35.6
2009-07-23 12:41:29 51°32.909 3°0.047 205.8 10.9 200 35.8
2009-07-23 12:42:29 51°32.741 2°59.951 205.3 10.7 198 35.2
2009-07-23 12:43:29 51°32.575 2°59.859 205.7 10.6 199 35.5
2009-07-23 12:44:29 51°32.409 2°59.763 206.9 10.5 201 35.3
2009-07-23 12:45:29 51°32.244 2°59.667 207.2 10.5 201 33.6
2009-07-23 12:46:29 51°32.081 2°59.573 206.1 10.4 199 32
2009-07-23 12:47:29 51°31.92 2°59.485 205.6 10.1 197 31.9
2009-07-23 12:48:29 51°31.761 2°59.401 205.3 9.9 198 29.7
2009-07-23 12:49:29 51°31.603 2°59.319 207.2 9.9 198 31.1
2009-07-23 12:50:29 51°31.446 2°59.238 206 9.9 198 30
2009-07-23 12:51:29 51°31.289 2°59.156 207 9.9 198 30.1
2009-07-23 12:52:29 51°31.133 2°59.071 206.5 9.8 201 30
2009-07-23 12:53:29 51°30.98 2°58.985 205.5 9.8 198 29.9
2009-07-23 12:54:29 51°30.827 2°58.897 206 9.8 200 30.1
2009-07-23 12:55:29 51°30.674 2°58.804 206.6 9.9 201 30.5
2009-07-23 12:56:29 51°30.521 2°58.714 206.6 9.8 199 30.4
2009-07-23 12:57:29 51°30.367 2°58.624 206.2 9.8 199 29.5
2009-07-23 12:58:29 51°30.212 2°58.537 203.8 9.9 193 28.6
2009-07-23 12:59:29 51°30.054 2°58.465 202.2 9.8 196 28.1
2009-07-23 13:00:29 51°29.895 2°58.391 201.1 9.9 197 27.8
2009-07-23 13:01:29 51°29.738 2°58.313 202.2 10 196 27.9
2009-07-23 13:02:29 51°29.579 2°58.235 201.1 10.2 197 28.2
2009-07-23 13:03:29 51°29.422 2°58.155 201.8 9.6 198 27.8
2009-07-23 13:04:29 51°29.273 2°58.079 202.4 9.5 198 28.5
2009-07-23 13:05:29 51°29.12 2°58.007 203.3 9.5 198 29
2009-07-23 13:06:29 51°28.967 2°57.935 202 9.6 196 29.8
2009-07-23 13:07:29 51°28.814 2°57.863 201.5 9.6 194 31.2
2009-07-23 13:08:29 51°28.661 2°57.789 202.2 9.6 197 31.9
2009-07-23 13:09:29 51°28.507 2°57.718 201.1 9.6 197 31.8
2009-07-23 13:10:29 51°28.354 2°57.643 201.6 9.7 197 31.5
2009-07-23 13:11:29 51°28.201 2°57.568 202 9.6 197 31.4
2009-07-23 13:12:29 51°28.049 2°57.492 202.6 9.6 197 32.7
2009-07-23 13:13:29 51°27.897 2°57.415 201.9 9.6 197 32.1
2009-07-23 13:14:29 51°27.744 2°57.34 202.3 9.6 196 30.5
2009-07-23 13:15:29 51°27.591 2°57.264 202.4 9.7 196 29.6
2009-07-23 13:16:29 51°27.439 2°57.188 203.3 9.7 197 28.7
2009-07-23 13:17:29 51°27.285 2°57.109 202.5 9.7 198 27.9
2009-07-23 13:18:29 51°27.133 2°57.031 202.3 9.6 200 26.5
2009-07-23 13:19:29 51°26.979 2°56.957 201.9 9.7 195 24.3
2009-07-23 13:20:29 51°26.824 2°56.886 201.9 9.7 196 23.6
2009-07-23 13:21:29 51°26.668 2°56.811 202.6 9.9 197 23.4
2009-07-23 13:22:29 51°26.511 2°56.73 203.9 10 200 22.1
2009-07-23 13:23:29 51°26.352 2°56.65 201.5 10 200 21
2009-07-23 13:24:29 51°26.193 2°56.573 202 9.9 196 20.3
2009-07-23 13:25:29 51°26.034 2°56.496 202.2 10 195 19.4
2009-07-23 13:26:29 51°25.876 2°56.416 203.1 10 198 19.9
2009-07-23 13:27:29 51°25.717 2°56.338 202.7 10 197 19.1
2009-07-23 13:28:29 51°25.558 2°56.256 203.2 10 199 20
2009-07-23 13:29:29 51°25.399 2°56.178 201.7 10 198 21.1
2009-07-23 13:30:29 51°25.239 2°56.102 201.5 10 196 23.5
2009-07-23 13:31:29 51°25.079 2°56.024 201.9 10 199 26
2009-07-23 13:32:29 51°24.92 2°55.953 201.1 9.9 196 27
2009-07-23 13:33:29 51°24.763 2°55.878 202.4 9.9 198 26.2
2009-07-23 13:34:29 51°24.607 2°55.806 201.9 9.7 197 26
2009-07-23 13:35:29 51°24.452 2°55.732 202.3 9.7 197 26.6
2009-07-23 13:36:29 51°24.298 2°55.647 204.1 9.7 201 25.7
2009-07-23 13:37:29 51°24.145 2°55.56 204.8 9.6 200 24.6
2009-07-23 13:38:29 51°23.995 2°55.475 204.2 9.7 200 23.8
2009-07-23 13:39:29 51°23.844 2°55.389 204 9.6 199 23.1
2009-07-23 13:40:29 51°23.693 2°55.302 203.6 9.8 200 22.7
2009-07-23 13:41:29 51°23.541 2°55.215 203.6 9.7 200 21.7
2009-07-23 13:42:29 51°23.391 2°55.135 204.8 9.3 203 21.1
2009-07-23 13:43:29 51°23.256 2°55.015 215.1 9.3 210 22
2009-07-23 13:44:30 51°23.122 2°54.887 214.5 9.2 212 22.5
2009-07-23 13:45:29 51°22.993 2°54.762 215.7 9.2 210 22.7
2009-07-23 13:46:29 51°22.86 2°54.641 215.7 9.2 210 23.5
2009-07-23 13:47:29 51°22.726 2°54.514 215 9.3 209 24.2
2009-07-23 13:48:29 51°22.59 2°54.393 213.4 9.4 208 23.5
2009-07-23 13:49:29 51°22.454 2°54.27 215.1 9.4 210 22.7
2009-07-23 13:50:29 51°22.317 2°54.15 214.8 9.3 209 21.8
2009-07-23 13:51:29 51°22.18 2°54.024 214.2 9.6 208 21.6
2009-07-23 13:52:29 51°22.041 2°53.895 215.3 9.7 211 21.9
2009-07-23 13:53:29 51°21.901 2°53.769 213.5 9.8 209 21.4
2009-07-23 13:54:29 51°21.76 2°53.641 215.1 9.7 210 20.3
2009-07-23 13:55:29 51°21.616 2°53.524 206.8 9.9 199 19.5
2009-07-23 13:56:29 51°21.458 2°53.442 202.2 10.1 197 19
2009-07-23 13:57:29 51°21.298 2°53.358 204.7 10.1 199 18.7
2009-07-23 13:58:29 51°21.137 2°53.272 203.3 10.1 200 18.6
2009-07-23 13:59:29 51°20.978 2°53.18 204.2 10.2 198 18.9
2009-07-23 14:00:29 51°20.818 2°53.089 203.7 10.2 199 18.9
2009-07-23 14:01:29 51°20.658 2°52.999 203.2 10.3 200 19
2009-07-23 14:02:29 51°20.497 2°52.909 202.4 10.4 199 19
2009-07-23 14:03:29 51°20.328 2°52.85 193.9 10.4 186 19
2009-07-23 14:04:29 51°20.156 2°52.825 191.8 10.3 186 18.9
2009-07-23 14:05:29 51°19.984 2°52.797 191.8 10.4 187 18.8
2009-07-23 14:06:29 51°19.813 2°52.767 192.7 10.2 188 18.4
2009-07-23 14:07:29 51°19.644 2°52.732 193.5 10.2 188 18
2009-07-23 14:08:29 51°19.476 2°52.701 192.4 10.1 187 17.3
2009-07-23 14:09:29 51°19.309 2°52.671 192.8 10.1 187 16.7
2009-07-23 14:10:29 51°19.142 2°52.637 193.2 10.2 187 16.1
2009-07-23 14:11:29 51°18.975 2°52.604 192.6 10.2 186 15.4
2009-07-23 14:12:29 51°18.808 2°52.569 193.7 10.2 188 14.7
2009-07-23 14:13:29 51°18.64 2°52.533 193.2 10.1 188 14.4
2009-07-23 14:14:29 51°18.472 2°52.494 193.9 10.2 190 13.9
2009-07-23 14:15:29 51°18.305 2°52.45 194.1 10.1 188 13.7
2009-07-23 14:16:29 51°18.138 2°52.417 191.9 10 187 13.5
2009-07-23 14:17:29 51°17.973 2°52.384 191.7 9.9 186 13.3
2009-07-23 14:18:29 51°17.807 2°52.364 189.3 10 184 13.1
2009-07-23 14:19:29 51°17.64 2°52.353 186.8 10.1 181 13.2
2009-07-23 14:20:29 51°17.472 2°52.352 185.4 10.1 180 13.2
2009-07-23 14:21:29 51°17.302 2°52.379 178.6 10.4 170 13.1
2009-07-23 14:22:29 51°17.133 2°52.446 167.7 10.7 160 12.6
2009-07-23 14:23:29 51°16.968 2°52.553 165 10.7 156 12.5
2009-07-23 14:24:29 51°16.805 2°52.673 162.4 11 153 12.5
2009-07-23 14:25:29 51°16.642 2°52.799 162.3 11 153 13.8
2009-07-23 14:26:29 51°16.478 2°52.923 163.1 10.9 155 14.5
2009-07-23 14:27:29 51°16.314 2°53.047 163.4 10.9 155 14.7
2009-07-23 14:28:29 51°16.151 2°53.179 161.4 11 153 14.5
2009-07-23 14:29:29 51°15.99 2°53.318 160.2 11 151 14.7
2009-07-23 14:30:29 51°15.828 2°53.454 161.9 11 154 14.7
2009-07-23 14:31:29 51°15.664 2°53.584 161.2 11 154 13.9
2009-07-23 14:32:29 51°15.5 2°53.716 158.7 11 153 13.1
2009-07-23 14:33:29 51°15.337 2°53.851 160.4 10.9 154 12.3
2009-07-23 14:34:30 51°15.172 2°53.989 158.5 10.9 151 11.9
2009-07-23 14:35:29 51°15.019 2°54.147 151.9 11.1 145 11.6
2009-07-23 14:36:29 51°14.871 2°54.328 149 11.1 142 12
2009-07-23 14:37:29 51°14.726 2°54.518 148 11.3 142 12.6
2009-07-23 14:38:29 51°14.581 2°54.709 147.3 11.4 141 12.6
2009-07-23 14:39:29 51°14.439 2°54.909 143.1 11.5 136 13.1
2009-07-23 14:40:29 51°14.318 2°55.134 127.3 10.3 127 13.5
2009-07-23 14:41:29 51°14.213 2°55.322 142.1 9.1 143 13.6
2009-07-23 14:42:29 51°14.093 2°55.458 153.1 8.7 154 13.7
2009-07-23 14:43:30 51°13.956 2°55.552 157.2 8.9 157 13.6
2009-07-23 14:44:29 51°13.837 2°55.632 157.6 7.6 157 13.3
2009-07-23 14:45:29 51°13.739 2°55.731 136.5 6 134 14.2
2009-07-23 14:46:29 51°13.692 2°55.842 117.9 4.7 116 11.3
2009-07-23 14:47:29 51°13.671 2°55.934 111.2 1.8 113 9.3
2009-07-23 14:48:29 51°13.664 2°55.956 117.5 0.4 136 8
2009-07-23 14:49:29 51°13.661 2°55.96 113.2 0.1 114 8.2
2009-07-23 14:50:29 51°13.662 2°55.961 119.1 0.1 5 8.5
2009-07-23 14:51:29 51°13.663 2°55.961 125.8 -999 102 8.2